Time;durP1;ratioP1;P1;durP2;ratioP2;P2;SDS_P1;SDS_P2;PMS_P1;PMS_P2;Temp;Humidity;BMP_temperature;BMP_pressure;BME280_temperature;BME280_humidity;BME280_pressure;Samples;Min_cycle;Max_cycle;Signal;HPM_P1;HPM_P2
2023/04/27 00:00:28;;;;;;;16.92;7.68;;;7.70;99.90;;;;;;5074770;28;20227;-73
2023/04/27 00:03:17;;;;;;;13.73;7.87;;;7.70;99.90;;;;;;5080879;28;20254;-73
2023/04/27 00:06:10;;;;;;;15.27;7.80;;;7.50;99.90;;;;;;5073067;28;20230;-73
2023/04/27 00:09:01;;;;;;;19.93;8.33;;;7.40;99.90;;;;;;5072923;28;20793;-73
2023/04/27 00:11:50;;;;;;;18.13;8.53;;;7.40;99.90;;;;;;5074964;28;20893;-73
2023/04/27 00:14:38;;;;;;;17.83;8.37;;;7.50;99.90;;;;;;5071720;28;20224;-74
2023/04/27 00:17:27;;;;;;;20.33;8.83;;;7.50;99.90;;;;;;5080686;28;20219;-73
2023/04/27 00:20:16;;;;;;;17.57;8.60;;;7.70;99.90;;;;;;5082049;28;20315;-74
2023/04/27 00:23:04;;;;;;;17.80;8.97;;;7.70;99.90;;;;;;5083775;28;20222;-75
2023/04/27 00:25:55;;;;;;;16.60;9.07;;;7.70;99.90;;;;;;5081313;28;20244;-73
2023/04/27 00:28:43;;;;;;;16.97;8.40;;;7.60;99.90;;;;;;5103193;27;20314;-74
2023/04/27 00:31:32;;;;;;;18.23;9.33;;;7.50;99.90;;;;;;5078761;28;20231;-75
2023/04/27 00:34:23;;;;;;;13.43;8.23;;;7.60;99.90;;;;;;5081020;28;20231;-74
2023/04/27 00:37:11;;;;;;;18.70;8.67;;;7.60;99.90;;;;;;5076704;28;20776;-73
2023/04/27 00:40:00;;;;;;;19.43;9.03;;;7.50;99.90;;;;;;5076585;28;20377;-74
2023/04/27 00:42:50;;;;;;;18.40;8.97;;;7.30;99.90;;;;;;5080237;28;20717;-74
2023/04/27 00:45:42;;;;;;;15.70;8.23;;;7.30;99.90;;;;;;5071728;28;20360;-75
2023/04/27 00:48:36;;;;;;;19.83;9.27;;;7.20;99.90;;;;;;5081678;28;20226;-75
2023/04/27 00:51:29;;;;;;;19.37;9.00;;;7.10;99.90;;;;;;5065755;28;20220;-74
2023/04/27 00:54:20;;;;;;;19.13;8.93;;;7.10;99.90;;;;;;5083006;28;20238;-74
2023/04/27 00:57:10;;;;;;;15.47;8.40;;;7.20;99.90;;;;;;5073535;28;20225;-74
2023/04/27 01:00:04;;;;;;;17.57;8.53;;;7.30;99.90;;;;;;5069075;28;20220;-75
2023/04/27 01:02:55;;;;;;;18.27;8.97;;;7.20;99.90;;;;;;5103661;28;20223;-74
2023/04/27 01:05:44;;;;;;;18.63;9.47;;;7.30;99.90;;;;;;5072100;28;20505;-75
2023/04/27 01:08:35;;;;;;;16.20;8.97;;;7.30;99.90;;;;;;5078974;28;20681;-75
2023/04/27 01:11:24;;;;;;;14.50;8.13;;;7.20;99.90;;;;;;5070780;28;20693;-75
2023/04/27 01:14:13;;;;;;;20.80;9.17;;;7.30;99.90;;;;;;5074594;28;20768;-74
2023/04/27 01:17:05;;;;;;;18.93;8.60;;;7.30;99.90;;;;;;5081612;28;20274;-74
2023/04/27 01:19:55;;;;;;;18.73;8.87;;;7.30;99.90;;;;;;5099261;27;20228;-75
2023/04/27 01:22:44;;;;;;;15.97;9.07;;;7.00;99.90;;;;;;5068685;28;20222;-74
2023/04/27 01:25:35;;;;;;;21.67;9.00;;;7.00;99.90;;;;;;5069259;28;20321;-74
2023/04/27 01:28:24;;;;;;;24.20;9.70;;;7.00;99.90;;;;;;5105105;28;20232;-72
2023/04/27 01:31:13;;;;;;;17.37;9.17;;;6.90;99.90;;;;;;5076118;28;20226;-73
2023/04/27 01:34:03;;;;;;;18.03;9.70;;;6.90;99.90;;;;;;5076916;28;20717;-74
2023/04/27 01:36:52;;;;;;;16.00;9.10;;;6.90;99.90;;;;;;5077076;28;20232;-75
2023/04/27 01:39:42;;;;;;;19.20;9.13;;;6.90;99.90;;;;;;5073760;28;20275;-72
2023/04/27 01:42:36;;;;;;;19.60;8.53;;;7.00;99.90;;;;;;5068324;28;20226;-73
2023/04/27 01:45:24;;;;;;;16.33;9.40;;;7.00;99.90;;;;;;5073877;28;20235;-74
2023/04/27 01:48:13;;;;;;;15.83;9.03;;;7.00;99.90;;;;;;5063295;28;20357;-72
2023/04/27 01:51:04;;;;;;;19.13;9.93;;;6.80;99.90;;;;;;5074707;28;20218;-72
2023/04/27 01:53:53;;;;;;;18.73;9.63;;;6.90;99.90;;;;;;5100184;28;20754;-72
2023/04/27 01:56:42;;;;;;;17.83;9.80;;;6.80;99.90;;;;;;5079772;28;20225;-73
2023/04/27 01:59:32;;;;;;;19.40;9.33;;;6.80;99.90;;;;;;5070839;28;20342;-72
2023/04/27 02:02:22;;;;;;;21.43;10.10;;;6.90;99.90;;;;;;5077046;28;20218;-72
2023/04/27 02:05:11;;;;;;;17.73;9.20;;;6.80;99.90;;;;;;5077219;28;20599;-75
2023/04/27 02:08:00;;;;;;;17.30;9.47;;;6.90;99.90;;;;;;5072966;28;20229;-75
2023/04/27 02:10:49;;;;;;;19.73;10.07;;;6.80;99.90;;;;;;5074320;28;20212;-73
2023/04/27 02:13:38;;;;;;;17.57;9.70;;;6.70;99.90;;;;;;5081751;28;20238;-74
2023/04/27 02:16:28;;;;;;;18.17;9.23;;;6.60;99.90;;;;;;5075728;28;20220;-74
2023/04/27 02:19:18;;;;;;;18.00;10.20;;;6.60;99.90;;;;;;5079455;28;22124;-73
2023/04/27 02:22:07;;;;;;;22.37;10.20;;;6.60;99.90;;;;;;5077449;28;20220;-75
2023/04/27 02:24:56;;;;;;;24.37;10.07;;;6.50;99.90;;;;;;5081780;28;20245;-72
2023/04/27 02:27:45;;;;;;;18.70;9.53;;;6.30;99.90;;;;;;5078626;28;20326;-74
2023/04/27 02:30:34;;;;;;;17.50;10.00;;;6.50;99.90;;;;;;5076326;28;20235;-76
2023/04/27 02:33:25;;;;;;;19.87;10.30;;;6.50;99.90;;;;;;5072894;28;20642;-73
2023/04/27 02:36:14;;;;;;;16.87;9.50;;;6.50;99.90;;;;;;5075107;27;20238;-73
2023/04/27 02:39:03;;;;;;;19.93;9.90;;;6.60;99.90;;;;;;5073271;28;20271;-72
2023/04/27 02:41:52;;;;;;;20.90;10.37;;;6.50;99.90;;;;;;5071843;28;20247;-74
2023/04/27 02:44:40;;;;;;;18.00;9.83;;;6.50;99.90;;;;;;5075618;28;20220;-73
2023/04/27 02:47:29;;;;;;;22.53;10.40;;;6.50;99.90;;;;;;5081255;28;20227;-73
2023/04/27 02:50:20;;;;;;;19.13;9.80;;;6.60;99.90;;;;;;5068734;28;20227;-74
2023/04/27 02:53:09;;;;;;;18.93;9.90;;;6.60;99.90;;;;;;5074611;28;20229;-74
2023/04/27 02:55:58;;;;;;;17.17;9.50;;;6.60;99.90;;;;;;5100050;27;20232;-74
2023/04/27 02:58:47;;;;;;;20.83;9.33;;;6.60;99.90;;;;;;5083632;28;20226;-74
2023/04/27 03:01:37;;;;;;;21.00;9.87;;;6.60;99.90;;;;;;5068855;28;20263;-74
2023/04/27 03:04:26;;;;;;;18.17;10.07;;;6.50;99.90;;;;;;5079182;28;20233;-73
2023/04/27 03:07:17;;;;;;;19.60;10.10;;;6.30;99.90;;;;;;5072673;28;20880;-73
2023/04/27 03:10:07;;;;;;;18.50;10.03;;;6.40;99.90;;;;;;5097451;27;20221;-72
2023/04/27 03:12:56;;;;;;;18.90;9.97;;;6.30;99.90;;;;;;5080362;27;20221;-72
2023/04/27 03:15:45;;;;;;;19.37;10.17;;;6.40;99.90;;;;;;5072653;28;20222;-74
2023/04/27 03:18:34;;;;;;;16.20;9.53;;;6.30;99.90;;;;;;5078261;28;20245;-75
2023/04/27 03:21:23;;;;;;;19.70;10.57;;;6.20;99.90;;;;;;5097908;27;20218;-73
2023/04/27 03:24:13;;;;;;;18.97;9.90;;;6.30;99.90;;;;;;5077784;28;20234;-73
2023/04/27 03:27:03;;;;;;;20.63;9.83;;;6.40;99.90;;;;;;5079653;28;20709;-73
2023/04/27 03:29:52;;;;;;;16.10;9.07;;;6.30;99.90;;;;;;5072675;28;20526;-75
2023/04/27 03:32:41;;;;;;;15.73;9.47;;;6.40;99.90;;;;;;5072269;28;20318;-73
2023/04/27 03:35:32;;;;;;;21.30;10.30;;;6.40;99.90;;;;;;5073211;28;20236;-73
2023/04/27 03:38:23;;;;;;;19.70;9.70;;;6.50;99.90;;;;;;5087813;27;20229;-73
2023/04/27 03:41:13;;;;;;;18.77;10.10;;;6.30;99.90;;;;;;5078348;28;20211;-72
2023/04/27 03:44:03;;;;;;;22.40;10.60;;;6.30;99.90;;;;;;5079922;28;20745;-73
2023/04/27 03:46:53;;;;;;;16.93;10.17;;;6.40;99.90;;;;;;5081479;28;20212;-75
2023/04/27 03:49:43;;;;;;;20.50;9.37;;;6.40;99.90;;;;;;5070880;28;20234;-73
2023/04/27 03:52:32;;;;;;;24.73;10.23;;;6.50;99.90;;;;;;5071149;28;20979;-72
2023/04/27 03:55:20;;;;;;;20.30;10.10;;;6.40;99.90;;;;;;5066128;28;20224;-72
2023/04/27 03:58:16;;;;;;;24.60;10.33;;;6.50;99.90;;;;;;5093720;27;20216;-73
2023/04/27 04:01:25;;;;;;;19.17;10.43;;;6.50;99.90;;;;;;5070544;28;20226;-72
2023/04/27 04:04:14;;;;;;;21.97;10.63;;;6.50;99.90;;;;;;5067464;28;20228;-73
2023/04/27 04:07:03;;;;;;;19.87;10.57;;;6.50;99.90;;;;;;5076462;28;20265;-74
2023/04/27 04:09:52;;;;;;;23.23;10.57;;;6.50;99.90;;;;;;5071660;28;20228;-73
2023/04/27 04:12:40;;;;;;;21.57;10.00;;;6.50;99.90;;;;;;5068281;28;20227;-73
2023/04/27 04:15:31;;;;;;;21.17;9.90;;;6.50;99.90;;;;;;5072102;28;20246;-73
2023/04/27 04:18:20;;;;;;;19.77;10.30;;;6.60;99.90;;;;;;5070366;28;20243;-72
2023/04/27 04:21:12;;;;;;;21.10;10.07;;;6.60;99.90;;;;;;5063225;28;20274;-74
2023/04/27 04:24:01;;;;;;;19.83;10.40;;;6.60;99.90;;;;;;5070620;28;20221;-74
2023/04/27 04:26:50;;;;;;;21.77;10.73;;;6.80;99.90;;;;;;5077748;28;20566;-72
2023/04/27 04:29:39;;;;;;;16.83;10.33;;;6.80;99.90;;;;;;5074032;28;21118;-72
2023/04/27 04:32:30;;;;;;;19.57;10.13;;;6.90;99.90;;;;;;5077411;28;20590;-72
2023/04/27 04:35:19;;;;;;;23.50;10.60;;;7.10;99.90;;;;;;5068055;28;20240;-72
2023/04/27 04:38:09;;;;;;;17.87;9.20;;;7.20;99.90;;;;;;5095649;27;20281;-72
2023/04/27 04:40:58;;;;;;;22.50;9.80;;;7.30;99.90;;;;;;5095012;27;20397;-71
2023/04/27 04:43:48;;;;;;;18.33;9.60;;;7.40;99.90;;;;;;5057892;28;20701;-72
2023/04/27 04:46:38;;;;;;;14.80;9.10;;;7.60;99.90;;;;;;5076345;28;20226;-73
2023/04/27 04:49:28;;;;;;;19.47;9.40;;;7.60;99.90;;;;;;5078633;28;20227;-71
2023/04/27 04:52:17;;;;;;;15.77;8.87;;;7.60;99.90;;;;;;5098309;28;20360;-71
2023/04/27 04:55:06;;;;;;;20.67;9.70;;;7.70;99.90;;;;;;5072964;28;20816;-73
2023/04/27 04:57:56;;;;;;;20.03;9.50;;;7.70;99.90;;;;;;5079613;28;20218;-72
2023/04/27 05:00:45;;;;;;;19.17;10.13;;;7.90;99.90;;;;;;5073596;28;20217;-74
2023/04/27 05:03:34;;;;;;;23.00;10.00;;;7.90;99.90;;;;;;5079875;28;20668;-73
2023/04/27 05:06:25;;;;;;;20.87;9.43;;;8.00;99.90;;;;;;5101298;27;20435;-73
2023/04/27 05:09:13;;;;;;;25.13;10.23;;;8.10;99.90;;;;;;5072767;28;20310;-71
2023/04/27 05:12:03;;;;;;;18.43;10.00;;;8.00;99.90;;;;;;5072669;27;20216;-73
2023/04/27 05:14:52;;;;;;;19.60;9.33;;;8.20;99.90;;;;;;5071057;28;20216;-72
2023/04/27 05:17:42;;;;;;;20.10;9.80;;;8.30;99.90;;;;;;5070329;28;20256;-72
2023/04/27 05:20:31;;;;;;;18.70;9.30;;;8.30;99.90;;;;;;5075325;28;20563;-71
2023/04/27 05:23:25;;;;;;;22.33;9.70;;;8.50;99.90;;;;;;5081452;28;20232;-74
2023/04/27 05:26:14;;;;;;;17.02;9.50;;;8.70;99.90;;;;;;5068255;28;20220;-75
2023/04/27 05:29:04;;;;;;;21.07;10.07;;;8.80;99.90;;;;;;5080826;28;20315;-72
2023/04/27 05:31:53;;;;;;;16.70;9.52;;;8.90;99.90;;;;;;5086636;28;20223;-72
2023/04/27 05:34:42;;;;;;;16.98;9.75;;;9.00;99.90;;;;;;5086632;27;20216;-72
2023/04/27 05:37:31;;;;;;;17.33;9.68;;;9.20;99.90;;;;;;5076352;28;20568;-73
2023/04/27 05:40:22;;;;;;;17.98;9.80;;;9.60;99.90;;;;;;5077703;28;20220;-75
2023/04/27 05:43:11;;;;;;;18.20;9.80;;;9.80;99.90;;;;;;5069782;28;20220;-73
2023/04/27 05:46:01;;;;;;;18.63;10.00;;;9.90;99.90;;;;;;5071282;28;20887;-71
2023/04/27 05:48:49;;;;;;;21.17;9.80;;;9.90;99.90;;;;;;5082612;28;20440;-71
2023/04/27 05:51:38;;;;;;;20.48;9.57;;;9.90;99.90;;;;;;5076521;28;20219;-73
2023/04/27 05:54:27;;;;;;;16.50;8.73;;;9.90;99.90;;;;;;5096742;27;20555;-73
2023/04/27 05:57:17;;;;;;;17.95;9.05;;;9.90;99.90;;;;;;5075523;28;20219;-74
2023/04/27 06:00:09;;;;;;;20.75;9.75;;;9.80;99.90;;;;;;5079147;27;20267;-76
2023/04/27 06:03:01;;;;;;;16.90;8.98;;;9.90;99.90;;;;;;5074499;28;20721;-74
2023/04/27 06:05:54;;;;;;;20.35;10.32;;;9.90;99.90;;;;;;5070511;28;20694;-75
2023/04/27 06:08:46;;;;;;;17.25;9.07;;;9.90;99.90;;;;;;5075548;27;20227;-72
2023/04/27 06:11:35;;;;;;;20.45;9.13;;;10.10;99.90;;;;;;5052921;28;20216;-72
2023/04/27 06:14:25;;;;;;;16.80;8.68;;;10.10;99.90;;;;;;5060281;28;20224;-71
2023/04/27 06:17:14;;;;;;;15.57;9.00;;;10.00;99.90;;;;;;5070890;28;20318;-70
2023/04/27 06:20:05;;;;;;;16.58;9.70;;;10.00;99.90;;;;;;5066302;28;20255;-72
2023/04/27 06:22:55;;;;;;;16.98;9.63;;;10.10;99.90;;;;;;5082860;28;20232;-73
2023/04/27 06:25:44;;;;;;;21.35;9.27;;;10.30;99.90;;;;;;5061068;28;20239;-70
2023/04/27 06:28:33;;;;;;;17.35;9.45;;;10.40;99.90;;;;;;5059426;28;20228;-71
2023/04/27 06:31:23;;;;;;;13.52;9.20;;;10.40;99.90;;;;;;5066776;28;20621;-69
2023/04/27 06:34:12;;;;;;;20.10;9.48;;;10.60;99.90;;;;;;5039630;28;20224;-70
2023/04/27 06:37:01;;;;;;;20.75;9.73;;;10.70;99.90;;;;;;5037675;28;20224;-71
2023/04/27 06:39:50;;;;;;;13.60;8.65;;;11.10;99.90;;;;;;5045169;28;20255;-72
2023/04/27 06:42:39;;;;;;;28.88;10.32;;;12.00;99.90;;;;;;5057344;28;20224;-71
2023/04/27 06:45:29;;;;;;;13.88;9.50;;;12.10;99.90;;;;;;5039582;28;20227;-70
2023/04/27 06:48:20;;;;;;;13.88;8.98;;;12.30;99.90;;;;;;5050239;28;20244;-71
2023/04/27 06:51:10;;;;;;;17.45;9.65;;;12.40;99.90;;;;;;5042665;28;20766;-71
2023/04/27 06:53:59;;;;;;;17.58;9.07;;;12.60;99.90;;;;;;5050804;28;20278;-72
2023/04/27 06:56:48;;;;;;;13.30;8.98;;;12.80;99.90;;;;;;5040938;28;20256;-72
2023/04/27 06:59:37;;;;;;;15.48;9.25;;;13.10;99.90;;;;;;5053965;28;20242;-72
2023/04/27 07:02:26;;;;;;;16.08;9.38;;;13.20;99.90;;;;;;5053438;28;20331;-72
2023/04/27 07:05:18;;;;;;;15.73;8.90;;;13.50;99.90;;;;;;5034902;28;20255;-71
2023/04/27 07:08:07;;;;;;;17.80;9.18;;;13.60;99.90;;;;;;5032862;28;20245;-71
2023/04/27 07:10:56;;;;;;;17.70;8.45;;;13.60;99.90;;;;;;5058507;28;20220;-71
2023/04/27 07:13:46;;;;;;;14.23;8.50;;;13.80;99.90;;;;;;5059557;28;20334;-72
2023/04/27 07:16:35;;;;;;;15.05;8.80;;;13.90;99.90;;;;;;5052062;28;20225;-72
2023/04/27 07:19:24;;;;;;;16.30;8.18;;;14.20;99.90;;;;;;5051158;28;20224;-72
2023/04/27 07:22:15;;;;;;;15.48;9.35;;;14.30;99.90;;;;;;5056872;28;20224;-73
2023/04/27 07:25:04;;;;;;;17.30;8.20;;;14.80;99.50;;;;;;5038326;28;20221;-77
2023/04/27 07:27:53;;;;;;;18.27;6.20;;;14.70;98.60;;;;;;5037751;28;20789;-75
2023/04/27 07:30:42;;;;;;;13.48;6.85;;;14.90;96.10;;;;;;5074476;28;20235;-75
2023/04/27 07:33:31;;;;;;;14.18;6.38;;;14.80;95.70;;;;;;5073456;28;20220;-74
2023/04/27 07:36:20;;;;;;;16.10;6.50;;;14.60;96.30;;;;;;5078670;28;20322;-74
2023/04/27 07:39:11;;;;;;;8.77;6.00;;;15.20;96.70;;;;;;5079598;28;20266;-76
2023/04/27 07:42:01;;;;;;;12.65;6.40;;;15.20;95.60;;;;;;5078646;28;20595;-75
2023/04/27 07:44:50;;;;;;;12.98;6.60;;;15.60;96.10;;;;;;5082112;28;20215;-75
2023/04/27 07:47:39;;;;;;;15.32;7.15;;;15.30;95.30;;;;;;5070305;28;20247;-75
2023/04/27 07:50:29;;;;;;;9.13;6.15;;;15.70;95.80;;;;;;5058128;28;20223;-75
2023/04/27 07:53:18;;;;;;;14.57;7.15;;;15.70;94.80;;;;;;5060401;28;21533;-73
2023/04/27 07:56:10;;;;;;;14.07;6.30;;;16.10;95.00;;;;;;5072406;28;20319;-75
2023/04/27 07:58:59;;;;;;;22.63;7.40;;;16.20;93.90;;;;;;5066222;28;20345;-75
2023/04/27 08:01:48;;;;;;;10.95;6.93;;;16.60;93.70;;;;;;5076802;28;20216;-75
2023/04/27 08:04:37;;;;;;;12.95;6.30;;;16.80;93.40;;;;;;5074293;28;20219;-74
2023/04/27 08:07:26;;;;;;;14.20;5.57;;;16.80;93.00;;;;;;5071942;28;20234;-75
2023/04/27 08:10:18;;;;;;;9.65;6.00;;;16.90;93.20;;;;;;5073704;28;20647;-77
2023/04/27 08:13:09;;;;;;;11.00;6.13;;;17.60;94.10;;;;;;5074852;28;20675;-76
2023/04/27 08:15:58;;;;;;;11.90;6.45;;;17.20;93.10;;;;;;5078866;28;20442;-76
2023/04/27 08:18:46;;;;;;;11.65;6.32;;;17.20;92.10;;;;;;5070484;28;20235;-77
2023/04/27 08:21:35;;;;;;;10.85;6.70;;;17.50;91.90;;;;;;5069325;28;20234;-76
2023/04/27 08:24:24;;;;;;;13.45;6.30;;;17.80;91.90;;;;;;5078508;28;20326;-77
2023/04/27 08:27:14;;;;;;;10.38;6.18;;;18.10;92.30;;;;;;5077652;28;20218;-76
2023/04/27 08:30:05;;;;;;;12.05;6.22;;;18.50;90.80;;;;;;5070660;28;20220;-75
2023/04/27 08:32:54;;;;;;;12.90;6.70;;;18.60;90.40;;;;;;5067697;28;20718;-75
2023/04/27 08:35:43;;;;;;;14.80;7.10;;;18.00;90.00;;;;;;5077510;28;20389;-77
2023/04/27 08:38:34;;;;;;;11.88;6.18;;;18.70;91.30;;;;;;5081883;28;20320;-77
2023/04/27 08:41:24;;;;;;;10.27;5.10;;;17.90;90.70;;;;;;5072056;28;20259;-77
2023/04/27 08:44:13;;;;;;;12.13;6.75;;;16.80;89.10;;;;;;5068656;28;20232;-76
2023/04/27 08:47:06;;;;;;;9.52;5.45;;;16.40;92.00;;;;;;5103362;27;20223;-77
2023/04/27 08:49:54;;;;;;;13.43;4.05;;;16.00;91.50;;;;;;5082887;28;20235;-77
2023/04/27 08:52:46;;;;;;;7.40;4.00;;;16.60;89.10;;;;;;5075116;28;20224;-76
2023/04/27 08:55:34;;;;;;;7.00;3.72;;;17.20;89.60;;;;;;5072294;28;20263;-77
2023/04/27 08:58:36;;;;;;;6.95;3.75;;;18.20;86.50;;;;;;5068105;28;20232;-76
2023/04/27 09:01:26;;;;;;;7.22;3.80;;;18.50;84.10;;;;;;5074756;28;20237;-75
2023/04/27 09:04:17;;;;;;;9.20;4.43;;;18.60;81.30;;;;;;5105378;28;20223;-76
2023/04/27 09:07:13;;;;;;;9.98;4.22;;;18.50;84.10;;;;;;5064115;28;20224;-76
2023/04/27 09:10:04;;;;;;;8.93;4.18;;;19.40;80.80;;;;;;5079437;28;20230;-76
2023/04/27 09:12:57;;;;;;;9.07;3.85;;;20.10;82.70;;;;;;5077138;28;20227;-76
2023/04/27 09:15:48;;;;;;;5.70;3.13;;;19.00;81.40;;;;;;5082617;27;20224;-75
2023/04/27 09:18:41;;;;;;;8.30;3.90;;;17.20;79.70;;;;;;5080536;28;20227;-76
2023/04/27 09:21:32;;;;;;;7.90;3.40;;;16.40;84.20;;;;;;5073807;28;20317;-75
2023/04/27 09:24:21;;;;;;;7.07;3.55;;;15.60;83.90;;;;;;5083684;28;20222;-74
2023/04/27 09:27:20;;;;;;;7.25;3.30;;;15.20;87.50;;;;;;5077247;28;20211;-75
2023/04/27 09:30:13;;;;;;;7.32;3.35;;;14.70;90.20;;;;;;5087745;28;20314;-74
2023/04/27 09:33:02;;;;;;;7.53;3.65;;;14.40;90.50;;;;;;5085214;28;20219;-75
2023/04/27 09:35:52;;;;;;;5.63;3.50;;;14.20;91.50;;;;;;5086148;28;20794;-76
2023/04/27 09:38:42;;;;;;;7.32;4.43;;;14.00;91.90;;;;;;5077778;28;20223;-77
2023/04/27 09:41:33;;;;;;;12.82;4.88;;;13.90;92.70;;;;;;5075964;28;20759;-76
2023/04/27 09:44:21;;;;;;;7.25;4.70;;;14.10;92.70;;;;;;5079391;27;20778;-76
2023/04/27 09:47:13;;;;;;;8.35;4.63;;;14.00;92.50;;;;;;5093677;27;20227;-75
2023/04/27 09:50:03;;;;;;;9.73;4.78;;;14.10;92.50;;;;;;5084092;28;20364;-76
2023/04/27 09:52:52;;;;;;;11.60;4.72;;;14.30;92.20;;;;;;5078194;28;20230;-76
2023/04/27 09:55:47;;;;;;;12.15;4.20;;;14.20;92.30;;;;;;5089545;28;20235;-75
2023/04/27 09:58:59;;;;;;;26.90;6.25;;;14.00;92.30;;;;;;5075613;28;20228;-77
2023/04/27 10:01:51;;;;;;;8.57;4.45;;;13.80;93.00;;;;;;5084045;28;20234;-76
2023/04/27 10:04:59;;;;;;;9.27;4.68;;;13.50;96.20;;;;;;5081114;28;20216;-75
2023/04/27 10:07:49;;;;;;;11.85;5.43;;;13.30;96.00;;;;;;5082306;28;20756;-75
2023/04/27 10:10:47;;;;;;;11.75;5.10;;;13.20;97.70;;;;;;5051755;28;20219;-75
2023/04/27 10:13:36;;;;;;;9.43;4.18;;;13.00;99.90;;;;;;5080131;28;20227;-76
2023/04/27 10:16:25;;;;;;;7.53;4.50;;;13.00;99.90;;;;;;5084325;27;20258;-75
2023/04/27 10:19:14;;;;;;;10.25;4.90;;;13.00;99.90;;;;;;5074468;28;20260;-75
2023/04/27 10:22:06;;;;;;;8.65;4.25;;;13.10;99.90;;;;;;5068819;28;20382;-76
2023/04/27 10:24:54;;;;;;;11.43;4.93;;;13.10;99.90;;;;;;5082863;28;20225;-75
2023/04/27 10:27:49;;;;;;;5.25;3.05;;;12.90;99.90;;;;;;5102084;27;20363;-75
2023/04/27 10:30:39;;;;;;;6.10;3.33;;;12.70;97.60;;;;;;5068434;28;20310;-74
2023/04/27 10:33:28;;;;;;;7.38;2.72;;;12.70;97.70;;;;;;5082026;28;20310;-75
2023/04/27 10:36:16;;;;;;;4.50;2.60;;;12.80;98.20;;;;;;5087562;28;20215;-76
2023/04/27 10:39:16;;;;;;;6.35;2.42;;;12.80;96.40;;;;;;5089093;28;20634;-75
2023/04/27 10:42:06;;;;;;;5.25;2.20;;;12.80;94.00;;;;;;5070588;28;20223;-75
2023/04/27 10:44:57;;;;;;;7.05;2.67;;;12.90;95.10;;;;;;5085191;28;20224;-75
2023/04/27 10:47:47;;;;;;;7.00;2.05;;;13.00;92.90;;;;;;5075785;28;20242;-76
2023/04/27 10:50:36;;;;;;;4.72;2.70;;;13.00;95.50;;;;;;5083723;28;20357;-75
2023/04/27 10:53:25;;;;;;;6.65;2.83;;;13.00;94.60;;;;;;5057999;28;20219;-76
2023/04/27 10:56:14;;;;;;;7.55;2.90;;;13.10;93.10;;;;;;5081394;28;20236;-76
2023/04/27 10:59:03;;;;;;;7.50;3.38;;;13.20;93.80;;;;;;5081350;28;20572;-75
2023/04/27 11:01:54;;;;;;;7.55;3.33;;;13.30;94.20;;;;;;5083689;28;20539;-76
2023/04/27 11:04:43;;;;;;;6.18;3.40;;;13.60;93.90;;;;;;5082580;28;20734;-75
2023/04/27 11:07:32;;;;;;;7.68;3.17;;;14.40;92.80;;;;;;5070029;28;20758;-75
2023/04/27 11:10:21;;;;;;;8.73;2.88;;;14.40;91.70;;;;;;5086137;28;20219;-74
2023/04/27 11:13:13;;;;;;;6.45;3.33;;;14.30;91.60;;;;;;5102926;27;20619;-73
2023/04/27 11:16:05;;;;;;;5.88;3.60;;;14.10;92.80;;;;;;5069820;28;20750;-80
2023/04/27 11:18:56;;;;;;;8.07;3.83;;;13.70;92.80;;;;;;5074247;28;20777;-75
2023/04/27 11:21:47;;;;;;;7.10;4.00;;;13.70;93.30;;;;;;5074704;28;20328;-77
2023/04/27 11:24:36;;;;;;;9.25;4.03;;;13.50;94.10;;;;;;5084443;28;20216;-76
2023/04/27 11:27:36;;;;;;;6.05;3.50;;;13.30;94.90;;;;;;5075506;28;20230;-76
2023/04/27 11:30:25;;;;;;;7.20;3.72;;;13.20;94.40;;;;;;5086174;28;20247;-73
2023/04/27 11:33:14;;;;;;;6.25;3.60;;;13.30;94.90;;;;;;5094749;28;20223;-76
2023/04/27 11:36:16;;;;;;;6.20;3.45;;;13.10;94.30;;;;;;5086488;28;20222;-76
2023/04/27 11:39:06;;;;;;;5.85;3.40;;;13.10;93.60;;;;;;5082561;28;20254;-76
2023/04/27 11:41:55;;;;;;;7.57;3.60;;;13.10;94.40;;;;;;5078623;28;20235;-76
2023/04/27 11:44:50;;;;;;;7.45;3.33;;;13.10;93.60;;;;;;5077602;28;20628;-76
2023/04/27 11:47:41;;;;;;;7.93;3.15;;;13.10;93.40;;;;;;5081947;28;20215;-77
2023/04/27 11:50:30;;;;;;;6.97;2.88;;;13.20;93.70;;;;;;5084173;28;20590;-74
2023/04/27 11:53:31;;;;;;;6.35;3.08;;;13.40;92.20;;;;;;5078514;28;20223;-75
2023/04/27 11:56:21;;;;;;;5.82;2.80;;;13.40;91.40;;;;;;5073207;28;20597;-77
2023/04/27 11:59:19;;;;;;;6.00;2.80;;;13.50;91.70;;;;;;5069777;28;20227;-74
2023/04/27 12:02:09;;;;;;;7.93;2.90;;;13.70;91.90;;;;;;5075956;28;20228;-75
2023/04/27 12:04:59;;;;;;;3.50;2.30;;;13.70;91.00;;;;;;5074292;28;20228;-75
2023/04/27 12:07:48;;;;;;;6.38;2.70;;;14.20;91.30;;;;;;5080894;28;20238;-74
2023/04/27 12:10:39;;;;;;;6.15;2.60;;;14.90;89.10;;;;;;5082897;28;20230;-75
2023/04/27 12:13:28;;;;;;;4.22;2.40;;;15.30;88.60;;;;;;5072910;28;20235;-75
2023/04/27 12:16:16;;;;;;;4.53;2.53;;;15.20;89.70;;;;;;5079674;28;20315;-75
2023/04/27 12:19:06;;;;;;;5.43;2.60;;;15.60;88.50;;;;;;5076245;28;20236;-77
2023/04/27 12:21:55;;;;;;;8.00;2.90;;;15.30;87.90;;;;;;5083111;28;20219;-77
2023/04/27 12:24:45;;;;;;;6.35;3.20;;;14.90;87.30;;;;;;5078342;28;20841;-76
2023/04/27 12:27:35;;;;;;;5.78;2.58;;;14.40;86.90;;;;;;5082097;28;20651;-77
2023/04/27 12:30:24;;;;;;;6.40;2.58;;;14.00;89.00;;;;;;5079326;28;20223;-77
2023/04/27 12:33:13;;;;;;;3.95;2.35;;;13.90;90.40;;;;;;5071797;28;20216;-78
2023/04/27 12:36:02;;;;;;;10.98;2.33;;;13.90;90.00;;;;;;5081961;28;20308;-75
2023/04/27 12:38:51;;;;;;;3.17;2.50;;;14.20;90.50;;;;;;5070434;28;20235;-76
2023/04/27 12:41:40;;;;;;;7.22;2.38;;;14.60;90.00;;;;;;5079076;28;20900;-76
2023/04/27 12:44:30;;;;;;;6.65;2.50;;;15.10;88.60;;;;;;5087587;28;20225;-76
2023/04/27 12:47:20;;;;;;;6.32;2.83;;;14.80;85.50;;;;;;5067729;28;20231;-75
2023/04/27 12:50:31;;;;;;;5.53;3.35;;;14.90;85.70;;;;;;5070449;28;21032;-77
2023/04/27 12:53:20;;;;;;;4.35;2.25;;;15.20;87.20;;;;;;5074795;28;20273;-77
2023/04/27 12:56:09;;;;;;;5.72;2.53;;;15.30;83.70;;;;;;5074221;28;20662;-76
2023/04/27 12:58:59;;;;;;;4.25;2.20;;;15.00;86.00;;;;;;5076000;28;20219;-76
2023/04/27 13:01:50;;;;;;;5.18;2.47;;;14.70;83.60;;;;;;5075096;28;20215;-76
2023/04/27 13:04:40;;;;;;;16.95;11.23;;;14.30;84.30;;;;;;5075078;28;20219;-77
2023/04/27 13:07:29;;;;;;;3.72;2.40;;;14.00;85.00;;;;;;5060061;28;20261;-78
2023/04/27 13:10:18;;;;;;;4.60;2.53;;;13.90;86.60;;;;;;5077523;28;20207;-77
2023/04/27 13:13:07;;;;;;;7.50;2.20;;;14.00;86.80;;;;;;5070130;28;20218;-77
2023/04/27 13:15:57;;;;;;;7.88;2.50;;;14.00;86.30;;;;;;5069148;28;20226;-76
2023/04/27 13:18:49;;;;;;;5.28;2.40;;;14.00;86.30;;;;;;5078558;28;20352;-78
2023/04/27 13:21:38;;;;;;;5.68;2.35;;;14.20;86.70;;;;;;5055788;28;20232;-77
2023/04/27 13:24:28;;;;;;;5.00;3.22;;;14.30;85.40;;;;;;5068652;28;20223;-76
2023/04/27 13:27:17;;;;;;;4.78;2.53;;;14.40;85.80;;;;;;5076412;28;20356;-78
2023/04/27 13:30:07;;;;;;;4.93;2.50;;;14.50;84.80;;;;;;5076602;28;20238;-76
2023/04/27 13:32:56;;;;;;;8.88;2.70;;;14.50;85.80;;;;;;5081694;28;20345;-77
2023/04/27 13:36:01;;;;;;;6.63;2.50;;;14.50;86.30;;;;;;5070959;28;20228;-77
2023/04/27 13:38:49;;;;;;;5.47;2.42;;;14.30;85.10;;;;;;5078067;28;20223;-76
2023/04/27 13:41:38;;;;;;;5.32;2.47;;;14.20;85.10;;;;;;5080616;28;20215;-76
2023/04/27 13:44:27;;;;;;;8.55;2.50;;;14.00;85.20;;;;;;5075937;28;20222;-77
2023/04/27 13:47:16;;;;;;;7.00;2.58;;;14.00;86.40;;;;;;5075685;28;20231;-77
2023/04/27 13:50:07;;;;;;;5.47;2.45;;;13.80;86.50;;;;;;5081133;28;20264;-76
2023/04/27 13:52:57;;;;;;;8.05;2.80;;;14.00;86.20;;;;;;5102751;27;20256;-76
2023/04/27 13:55:45;;;;;;;4.72;2.40;;;14.00;86.00;;;;;;5083031;28;20227;-77
2023/04/27 13:58:35;;;;;;;7.35;2.67;;;13.90;87.70;;;;;;5081536;28;20227;-76
2023/04/27 14:01:25;;;;;;;4.45;2.20;;;13.80;87.70;;;;;;5080024;28;20331;-76
2023/04/27 14:04:14;;;;;;;5.90;2.40;;;13.80;87.50;;;;;;5068569;28;20230;-77
2023/04/27 14:07:03;;;;;;;3.85;2.15;;;13.80;86.80;;;;;;5078237;28;20271;-76
2023/04/27 14:09:53;;;;;;;7.05;2.75;;;14.00;87.30;;;;;;5091088;28;20242;-76
2023/04/27 14:12:42;;;;;;;5.93;2.20;;;14.00;85.70;;;;;;5084476;28;20349;-77
2023/04/27 14:15:35;;;;;;;5.35;2.13;;;14.00;86.40;;;;;;5083870;28;20215;-78
2023/04/27 14:18:23;;;;;;;5.13;2.60;;;13.70;85.90;;;;;;5081286;28;20231;-77
2023/04/27 14:21:20;;;;;;;7.80;2.63;;;13.80;86.20;;;;;;5080075;28;20307;-76
2023/04/27 14:24:08;;;;;;;7.05;2.38;;;13.60;85.60;;;;;;5082701;28;20234;-76
2023/04/27 14:26:58;;;;;;;6.35;2.20;;;13.70;84.60;;;;;;5082145;28;20334;-76
2023/04/27 14:29:47;;;;;;;7.53;2.20;;;13.90;84.50;;;;;;5062054;28;20235;-76
2023/04/27 14:32:36;;;;;;;9.63;2.00;;;13.80;83.50;;;;;;5061931;28;20256;-75
2023/04/27 14:35:25;;;;;;;4.07;2.17;;;13.90;84.90;;;;;;5087847;28;20227;-76
2023/04/27 14:38:14;;;;;;;4.78;2.00;;;13.80;83.30;;;;;;5055984;28;20217;-76
2023/04/27 14:41:02;;;;;;;4.07;2.20;;;13.70;83.00;;;;;;5060897;28;20369;-76